createdAt,value
2023-05-21T00:04:01.090Z,80.99
2023-05-21T00:09:06.563Z,77.66
2023-05-21T00:14:09.775Z,76.23
2023-05-21T00:19:13.535Z,76.24
2023-05-21T00:24:16.388Z,76.14
2023-05-21T00:29:19.188Z,75.69
2023-05-21T00:34:22.297Z,76.16
2023-05-21T00:39:25.780Z,75.34
2023-05-21T00:44:34.195Z,75.61
2023-05-21T00:49:37.362Z,75.87
2023-05-21T00:54:40.398Z,76.69
2023-05-21T00:59:44.425Z,77.34
2023-05-21T01:04:47.310Z,78.23
2023-05-21T01:09:50.136Z,78.69
2023-05-21T01:14:54.260Z,79.18
2023-05-21T01:19:59.079Z,79.95
2023-05-21T01:25:03.993Z,80.72
2023-05-21T01:30:08.505Z,81.64
2023-05-21T01:35:26.319Z,82.45
2023-05-21T01:40:46.429Z,83.56
2023-05-21T01:45:54.142Z,84.09
2023-05-21T01:51:05.062Z,84.81
2023-05-21T01:56:08.596Z,85.50
2023-05-21T02:01:12.090Z,86.16
2023-05-21T02:06:15.215Z,86.47
2023-05-21T02:11:18.210Z,86.94
2023-05-21T02:16:22.865Z,87.45
2023-05-21T02:21:26.443Z,88.32
2023-05-21T02:26:29.425Z,88.96
2023-05-21T02:31:32.367Z,88.84
2023-05-21T02:36:36.141Z,89.05
2023-05-21T02:41:39.531Z,89.38
2023-05-21T02:46:42.615Z,89.83
2023-05-21T02:51:45.407Z,89.88
2023-05-21T02:56:48.519Z,90.41
2023-05-21T03:01:51.407Z,90.51
2023-05-21T03:06:55.254Z,90.69
2023-05-21T03:11:58.278Z,91.03
2023-05-21T03:17:03.486Z,91.62
2023-05-21T03:22:06.892Z,91.89
2023-05-21T03:27:09.924Z,92.74
2023-05-21T03:32:13.732Z,93.33
2023-05-21T03:37:16.828Z,93.93
2023-05-21T03:42:19.639Z,94.30
2023-05-21T03:47:22.888Z,94.67
2023-05-21T03:52:25.711Z,94.94
2023-05-21T03:57:28.890Z,94.96
2023-05-21T04:02:32.728Z,95.51
2023-05-21T04:07:38.306Z,95.84
2023-05-21T04:12:41.428Z,96.28
2023-05-21T04:17:45.474Z,95.89
2023-05-21T04:22:49.014Z,94.96
2023-05-21T04:27:52.672Z,95.70
2023-05-21T04:32:55.611Z,95.96
2023-05-21T04:37:58.517Z,95.87
2023-05-21T04:43:02.198Z,90.71
2023-05-21T04:48:05.609Z,89.09
2023-05-21T04:53:08.882Z,88.53
2023-05-21T04:58:11.967Z,87.15
2023-05-21T05:03:15.115Z,83.10
2023-05-21T05:08:18.176Z,80.67
2023-05-21T05:13:21.340Z,77.92
2023-05-21T05:18:24.530Z,75.19
2023-05-21T05:23:27.400Z,76.44
2023-05-21T05:28:30.163Z,75.47
2023-05-21T05:33:32.976Z,74.38
2023-05-21T05:38:36.482Z,74.49
2023-05-21T05:43:39.508Z,73.61
2023-05-21T05:48:42.467Z,73.43
2023-05-21T05:53:45.712Z,73.12
2023-05-21T05:58:48.682Z,72.28
2023-05-21T06:03:52.419Z,72.74
2023-05-21T06:08:55.628Z,72.19
2023-05-21T06:14:01.539Z,70.22
2023-05-21T06:19:04.666Z,69.32
2023-05-21T06:24:07.757Z,69.03
2023-05-21T06:29:10.664Z,67.80
2023-05-21T06:34:13.698Z,68.91
2023-05-21T06:39:17.353Z,66.85
2023-05-21T06:44:20.792Z,63.88
2023-05-21T06:49:23.858Z,65.56
2023-05-21T06:54:27.212Z,62.34
2023-05-21T06:59:30.459Z,56.26
2023-05-21T07:04:35.549Z,55.74
2023-05-21T07:09:38.472Z,55.40
2023-05-21T07:14:42.943Z,54.26
2023-05-21T07:19:46.181Z,55.46
2023-05-21T07:24:49.213Z,55.06
2023-05-21T07:29:52.092Z,54.81
2023-05-21T07:34:55.904Z,55.11
2023-05-21T08:08:07.935Z,50.43
2023-05-21T08:13:16.745Z,50.03
2023-05-21T08:18:19.665Z,50.01
2023-05-21T08:23:22.888Z,50.01
2023-05-21T08:28:27.701Z,50.29
2023-05-21T08:33:30.968Z,49.92
2023-05-21T08:38:36.956Z,49.17
2023-05-21T08:43:40.816Z,50.21
2023-05-21T10:14:34.797Z,44.63
2023-05-21T10:19:39.448Z,43.11
2023-05-21T10:24:44.466Z,43.65
2023-05-21T10:29:48.993Z,42.93
2023-05-21T10:34:58.562Z,42.74
2023-05-21T10:40:02.431Z,42.59
2023-05-21T10:45:48.435Z,42.19
2023-05-21T10:51:36.239Z,42.59
2023-05-21T10:57:22.051Z,42.34
2023-05-21T11:02:27.504Z,40.18
2023-05-21T11:07:56.877Z,40.67
2023-05-21T11:13:17.184Z,39.45
2023-05-21T11:18:20.240Z,39.92
2023-05-21T11:23:24.019Z,41.22
2023-05-21T11:28:34.415Z,39.57
2023-05-21T11:33:37.657Z,40.06
2023-05-21T11:38:40.890Z,41.49
2023-05-21T11:43:44.394Z,40.55
2023-05-21T11:48:48.205Z,39.04
2023-05-21T11:53:51.811Z,40.44
2023-05-21T11:58:55.959Z,39.91
2023-05-21T12:03:58.998Z,40.14
2023-05-21T12:09:02.172Z,40.19
2023-05-21T12:14:09.306Z,41.54
2023-05-21T12:19:12.796Z,40.26
2023-05-21T12:24:16.501Z,41.08
2023-05-21T12:29:20.439Z,40.76
2023-05-21T12:34:49.826Z,38.41
2023-05-21T12:39:55.922Z,38.47
2023-05-21T12:44:59.095Z,38.25
2023-05-21T12:50:08.562Z,37.38
2023-05-21T12:55:15.053Z,37.14
2023-05-21T13:00:24.342Z,34.83
2023-05-21T13:05:27.696Z,36.98
2023-05-21T13:10:30.654Z,34.64
2023-05-21T13:15:33.771Z,33.95
2023-05-21T13:20:37.382Z,35.31
2023-05-21T13:25:40.640Z,35.15
2023-05-21T13:30:43.742Z,35.22
2023-05-21T13:35:51.209Z,34.97
2023-05-21T13:40:54.199Z,35.04
2023-05-21T13:45:57.019Z,35.25
2023-05-21T13:51:01.294Z,33.72
2023-05-21T13:56:05.232Z,35.07
2023-05-21T14:01:08.387Z,33.05
2023-05-21T14:06:12.004Z,34.43
2023-05-21T14:11:14.898Z,34.79
2023-05-21T14:16:18.568Z,34.47
2023-05-21T14:21:21.878Z,34.26
2023-05-21T14:26:26.857Z,35.10
2023-05-21T14:31:30.354Z,34.62
2023-05-21T14:36:33.373Z,34.91
2023-05-21T14:41:39.845Z,34.06
2023-05-21T14:46:42.759Z,34.85
2023-05-21T14:51:47.557Z,34.02
2023-05-21T14:56:53.616Z,33.24
2023-05-21T15:01:56.835Z,32.66
2023-05-21T15:07:00.303Z,31.98
2023-05-21T15:12:04.337Z,32.60
2023-05-21T15:17:07.726Z,31.64
2023-05-21T15:22:11.119Z,30.82
2023-05-21T15:27:13.968Z,30.90
2023-05-21T15:32:17.918Z,30.36
2023-05-21T15:37:21.784Z,30.37
2023-05-21T15:42:24.864Z,31.80
2023-05-21T15:47:27.985Z,31.17
2023-05-21T15:52:31.002Z,31.53
2023-05-21T15:57:34.063Z,31.47
2023-05-21T16:02:37.306Z,31.08
2023-05-21T16:07:42.215Z,31.56
2023-05-21T16:12:45.397Z,30.60
2023-05-21T16:17:48.591Z,30.97
2023-05-21T16:22:51.487Z,31.18
2023-05-21T16:27:55.232Z,31.48
2023-05-21T16:32:58.249Z,32.94
2023-05-21T16:38:01.710Z,33.43
2023-05-21T16:43:04.979Z,33.57
2023-05-21T16:48:08.709Z,34.18
2023-05-21T16:53:11.859Z,35.11
2023-05-21T16:58:15.158Z,36.55
2023-05-21T17:03:18.170Z,36.67
2023-05-21T17:08:21.179Z,37.20
2023-05-21T17:13:24.272Z,39.92
2023-05-21T17:18:27.295Z,39.29
2023-05-21T17:23:30.541Z,41.02
2023-05-21T17:28:33.509Z,41.09
2023-05-21T17:33:38.171Z,43.59
2023-05-21T17:38:41.153Z,44.50
2023-05-21T17:43:44.280Z,45.49
2023-05-21T17:48:47.324Z,45.89
2023-05-21T17:53:50.455Z,47.02
2023-05-21T17:58:53.680Z,47.52
2023-05-21T18:03:56.721Z,48.71
2023-05-21T18:08:59.703Z,49.23
2023-05-21T18:14:04.025Z,50.46
2023-05-21T18:19:07.404Z,51.94
2023-05-21T18:24:10.520Z,52.67
2023-05-21T18:29:15.035Z,53.91
2023-05-21T18:34:18.104Z,54.29
2023-05-21T18:39:24.779Z,54.26
2023-05-21T18:44:27.893Z,55.54
2023-05-21T18:49:34.005Z,57.01
2023-05-21T18:54:36.961Z,57.88
2023-05-21T18:59:40.861Z,58.50
2023-05-21T19:04:46.881Z,59.34
2023-05-21T19:09:49.960Z,60.04
2023-05-21T19:14:53.526Z,60.75
2023-05-21T19:19:56.824Z,61.98
2023-05-21T19:25:00.769Z,63.53
2023-05-21T19:30:04.213Z,63.88
2023-05-21T19:35:07.903Z,64.36
2023-05-21T19:40:11.320Z,64.67
2023-05-21T19:45:15.588Z,65.34
2023-05-21T19:50:19.179Z,66.62
2023-05-21T19:55:22.967Z,68.06
2023-05-21T20:00:26.403Z,69.01
2023-05-21T20:05:29.407Z,68.95
2023-05-21T20:10:32.462Z,69.55
2023-05-21T20:15:35.950Z,70.20
2023-05-21T20:20:39.874Z,70.91
2023-05-21T20:25:43.217Z,71.63
2023-05-21T20:30:59.033Z,72.39
2023-05-21T20:36:03.463Z,72.80
2023-05-21T20:41:06.284Z,73.10
2023-05-21T20:46:09.402Z,72.59
2023-05-21T20:51:12.491Z,71.58
2023-05-21T20:56:21.687Z,71.17
2023-05-21T21:01:30.559Z,71.19
2023-05-21T21:06:33.871Z,70.87
2023-05-21T21:11:37.174Z,71.90
2023-05-21T21:16:40.131Z,72.61
2023-05-21T21:21:43.114Z,73.43
2023-05-21T21:26:46.104Z,74.56
2023-05-21T21:31:50.835Z,74.63
2023-05-21T21:36:54.477Z,74.58
2023-05-21T21:41:57.556Z,74.47
2023-05-21T21:47:00.851Z,74.03
2023-05-21T21:52:04.096Z,74.66
2023-05-21T21:57:07.061Z,74.52
2023-05-21T22:02:10.004Z,74.51
2023-05-21T22:07:16.950Z,74.82
2023-05-21T22:12:20.037Z,75.19
2023-05-21T22:17:23.504Z,75.28
2023-05-21T22:22:26.935Z,74.72
2023-05-21T22:27:29.925Z,73.77
2023-05-21T22:32:33.619Z,73.46
2023-05-21T22:37:37.432Z,73.35
2023-05-21T22:42:40.843Z,72.56
2023-05-21T22:47:43.876Z,71.65
2023-05-21T22:52:46.967Z,71.50
2023-05-21T22:57:49.900Z,71.74
2023-05-21T23:02:54.486Z,72.15
2023-05-21T23:07:57.982Z,71.84
2023-05-21T23:13:00.670Z,71.72
2023-05-21T23:18:04.022Z,71.52
2023-05-21T23:23:07.595Z,71.93
2023-05-21T23:28:10.797Z,71.76
2023-05-21T23:33:14.029Z,71.58
2023-05-21T23:38:17.121Z,71.88
2023-05-21T23:43:20.120Z,72.18
2023-05-21T23:48:23.105Z,72.90
2023-05-21T23:53:26.393Z,73.76
2023-05-21T23:58:29.488Z,74.28
